PWSweather.com
Personal Weather Stations
Station Observations
KMAMEDFI2
Medfield, MA 02052

Medfield, MA 02052

Lat: 42.1900822, Lon: -71.3296889

Elevation: 138

Station Type: Rainwise WS MK-III

http://www.medfieldweather.com

High Low Average
Temperature 40.1°F4.5°C 24.6°F-4.1°C 33.8°F1.0°C
Dew Point 37.8°F3.2°C 22.9°F-5.1°C 32.0°F0.0°C
Winds 4.6 mph 7.4 kmh Calm Calm 1.0 mph SW1.6 kmh SW
Wind Gusts 8.1 mph13.0 kmh -- 2.0 mph3.2 kmh
Humidity 96% 82% 93%
Pressure 30.31 in1026.4 mb 30.20 in1022.7 mb -
Precipitation 0.23 in5.8 mm - -
Hour Temp Dew Point Humidity Winds Wind Gusts Pressure Precip Precip Rate Daily Precip Total
12:00 AM 25.4°F-3.7°C 23.9°F-4.5°C 94% Calm Calm -- 30.31 in1026.4 mb - 0.00 in0.0 mm 0.00 in0.0 mm
12:10 AM 25.3°F-3.7°C 23.8°F-4.6°C 94% Calm Calm -- 30.31 in1026.4 mb - 0.00 in0.0 mm 0.00 in0.0 mm
12:20 AM 24.8°F-4.0°C 23.1°F-4.9°C 93% Calm Calm -- 30.31 in1026.4 mb - 0.00 in0.0 mm 0.00 in0.0 mm
12:30 AM 24.8°F-4.0°C 23.1°F-4.9°C 93% Calm Calm -- 30.30 in1026.1 mb - 0.00 in0.0 mm 0.00 in0.0 mm
12:40 AM 24.9°F-3.9°C 23.2°F-4.9°C 93% Calm Calm -- 30.30 in1026.1 mb - 0.00 in0.0 mm 0.00 in0.0 mm
12:50 AM 24.6°F-4.1°C 22.9°F-5.1°C 93% Calm Calm -- 30.30 in1026.1 mb - 0.00 in0.0 mm 0.00 in0.0 mm
01:00 AM 24.7°F-4.1°C 23.0°F-5.0°C 93% Calm Calm -- 30.30 in1026.1 mb - 0.00 in0.0 mm 0.00 in0.0 mm
01:10 AM 24.9°F-3.9°C 23.2°F-4.9°C 93% Calm Calm -- 30.30 in1026.1 mb - 0.00 in0.0 mm 0.00 in0.0 mm
01:20 AM 25.8°F-3.4°C 24.3°F-4.3°C 94% Calm Calm -- 30.30 in1026.1 mb - 0.00 in0.0 mm 0.00 in0.0 mm
01:30 AM 26.4°F-3.1°C 24.9°F-3.9°C 94% Calm Calm -- 30.29 in1025.7 mb - 0.00 in0.0 mm 0.00 in0.0 mm
01:40 AM 26.5°F-3.1°C 25.0°F-3.9°C 94% Calm Calm -- 30.29 in1025.7 mb - 0.00 in0.0 mm 0.00 in0.0 mm
01:50 AM 25.9°F-3.4°C 24.4°F-4.2°C 94% Calm Calm -- 30.30 in1026.1 mb - 0.00 in0.0 mm 0.00 in0.0 mm
02:00 AM 25.6°F-3.6°C 24.1°F-4.4°C 94% Calm Calm -- 30.30 in1026.1 mb - 0.00 in0.0 mm 0.00 in0.0 mm
02:10 AM 25.8°F-3.4°C 24.3°F-4.3°C 94% Calm Calm -- 30.30 in1026.1 mb - 0.00 in0.0 mm 0.00 in0.0 mm
02:20 AM 26.4°F-3.1°C 24.9°F-3.9°C 94% Calm Calm -- 30.30 in1026.1 mb - 0.00 in0.0 mm 0.00 in0.0 mm
02:30 AM 26.6°F-3.0°C 25.1°F-3.8°C 94% Calm Calm -- 30.29 in1025.7 mb - 0.00 in0.0 mm 0.00 in0.0 mm
02:40 AM 26.5°F-3.1°C 25.0°F-3.9°C 94% Calm Calm -- 30.28 in1025.4 mb - 0.00 in0.0 mm 0.00 in0.0 mm
02:50 AM 26.3°F-3.2°C 24.8°F-4.0°C 94% Calm Calm -- 30.28 in1025.4 mb - 0.00 in0.0 mm 0.00 in0.0 mm
03:00 AM 25.9°F-3.4°C 24.4°F-4.2°C 94% Calm Calm -- 30.28 in1025.4 mb - 0.00 in0.0 mm 0.00 in0.0 mm
03:10 AM 26.1°F-3.3°C 24.6°F-4.1°C 94% Calm Calm -- 30.28 in1025.4 mb - 0.00 in0.0 mm 0.00 in0.0 mm
03:20 AM 26.3°F-3.2°C 24.8°F-4.0°C 94% Calm Calm -- 30.28 in1025.4 mb - 0.00 in0.0 mm 0.00 in0.0 mm
03:30 AM 26.0°F-3.3°C 24.5°F-4.2°C 94% Calm Calm -- 30.29 in1025.7 mb - 0.00 in0.0 mm 0.00 in0.0 mm
03:40 AM 26.2°F-3.2°C 24.7°F-4.1°C 94% Calm Calm -- 30.29 in1025.7 mb - 0.00 in0.0 mm 0.00 in0.0 mm
03:50 AM 26.7°F-2.9°C 25.2°F-3.8°C 94% Calm Calm -- 30.28 in1025.4 mb - 0.00 in0.0 mm 0.00 in0.0 mm
04:00 AM 27.3°F-2.6°C 25.8°F-3.4°C 94% Calm Calm -- 30.27 in1025.1 mb - 0.00 in0.0 mm 0.00 in0.0 mm
04:10 AM 27.9°F-2.3°C 26.4°F-3.1°C 94% Calm Calm -- 30.27 in1025.1 mb - 0.00 in0.0 mm 0.00 in0.0 mm
04:20 AM 28.2°F-2.1°C 26.7°F-2.9°C 94% Calm Calm -- 30.27 in1025.1 mb - 0.00 in0.0 mm 0.00 in0.0 mm
04:30 AM 28.3°F-2.1°C 26.8°F-2.9°C 94% Calm Calm -- 30.27 in1025.1 mb - 0.00 in0.0 mm 0.00 in0.0 mm
04:40 AM 28.4°F-2.0°C 26.9°F-2.8°C 94% Calm Calm -- 30.27 in1025.1 mb - 0.00 in0.0 mm 0.00 in0.0 mm
04:50 AM 28.6°F-1.9°C 27.1°F-2.7°C 94% Calm Calm -- 30.27 in1025.1 mb - 0.00 in0.0 mm 0.00 in0.0 mm
05:00 AM 28.9°F-1.7°C 27.4°F-2.6°C 94% Calm Calm -- 30.27 in1025.1 mb - 0.00 in0.0 mm 0.00 in0.0 mm
05:10 AM 29.1°F-1.6°C 27.6°F-2.4°C 94% Calm Calm -- 30.27 in1025.1 mb - 0.00 in0.0 mm 0.00 in0.0 mm
05:30 AM 29.7°F-1.3°C 28.2°F-2.1°C 94% Calm Calm -- 30.28 in1025.4 mb - 0.00 in0.0 mm 0.00 in0.0 mm
05:40 AM 30.1°F-1.1°C 28.6°F-1.9°C 94% 2.3 mph SE3.7 kmh SE 2.3 mph3.7 kmh 30.26 in1024.7 mb - 0.00 in0.0 mm 0.00 in0.0 mm
05:50 AM 30.6°F-0.8°C 29.0°F-1.7°C 94% Calm Calm 1.2 mph1.9 kmh 30.27 in1025.1 mb - 0.00 in0.0 mm 0.00 in0.0 mm
06:00 AM 31.1°F-0.5°C 29.8°F-1.2°C 95% Calm Calm -- 30.27 in1025.1 mb - 0.00 in0.0 mm 0.00 in0.0 mm
06:10 AM 31.3°F-0.4°C 30.0°F-1.1°C 95% Calm Calm -- 30.27 in1025.1 mb - 0.00 in0.0 mm 0.00 in0.0 mm
06:20 AM 31.7°F-0.2°C 30.4°F-0.9°C 95% Calm Calm -- 30.27 in1025.1 mb - 0.00 in0.0 mm 0.00 in0.0 mm
06:30 AM 32.0°F0.0°C 30.7°F-0.7°C 95% Calm Calm -- 30.27 in1025.1 mb - 0.00 in0.0 mm 0.00 in0.0 mm
06:40 AM 32.3°F0.2°C 31.0°F-0.6°C 95% Calm Calm -- 30.28 in1025.4 mb - 0.00 in0.0 mm 0.00 in0.0 mm
06:50 AM 32.6°F0.3°C 31.3°F-0.4°C 95% 1.2 mph W1.9 kmh W 1.2 mph1.9 kmh 30.28 in1025.4 mb - 0.00 in0.0 mm 0.00 in0.0 mm
07:00 AM 32.8°F0.4°C 31.5°F-0.3°C 95% Calm Calm -- 30.27 in1025.1 mb - 0.00 in0.0 mm 0.00 in0.0 mm
07:10 AM 32.9°F0.5°C 31.6°F-0.2°C 95% 2.3 mph WSW3.7 kmh WSW 2.3 mph3.7 kmh 30.27 in1025.1 mb - 0.00 in0.0 mm 0.00 in0.0 mm
07:40 AM 33.7°F0.9°C 31.6°F-0.2°C 92% 1.2 mph WSW1.9 kmh WSW 2.3 mph3.7 kmh 30.28 in1025.4 mb - 0.00 in0.0 mm 0.00 in0.0 mm
07:50 AM 33.8°F1.0°C 31.7°F-0.2°C 92% Calm Calm 1.2 mph1.9 kmh 30.27 in1025.1 mb - 0.00 in0.0 mm 0.00 in0.0 mm
08:20 AM 34.9°F1.6°C 32.3°F0.2°C 90% 1.2 mph N1.9 kmh N 2.3 mph3.7 kmh 30.27 in1025.1 mb - 0.00 in0.0 mm 0.00 in0.0 mm
08:30 AM 35.3°F1.8°C 32.7°F0.4°C 90% 1.2 mph NNW1.9 kmh NNW 1.2 mph1.9 kmh 30.26 in1024.7 mb - 0.00 in0.0 mm 0.00 in0.0 mm
08:40 AM 35.7°F2.1°C 32.8°F0.4°C 89% 2.3 mph NE3.7 kmh NE 5.8 mph9.3 kmh 30.27 in1025.1 mb - 0.00 in0.0 mm 0.00 in0.0 mm
08:50 AM 36.2°F2.3°C 33.3°F0.7°C 89% Calm Calm -- 30.26 in1024.7 mb - 0.00 in0.0 mm 0.00 in0.0 mm
09:00 AM 36.9°F2.7°C 33.7°F0.9°C 88% 2.3 mph WNW3.7 kmh WNW 5.8 mph9.3 kmh 30.26 in1024.7 mb - 0.00 in0.0 mm 0.00 in0.0 mm
09:20 AM 37.9°F3.3°C 33.8°F1.0°C 85% 1.2 mph W1.9 kmh W 2.3 mph3.7 kmh 30.29 in1025.7 mb - 0.00 in0.0 mm 0.00 in0.0 mm
09:30 AM 38.5°F3.6°C 34.7°F1.5°C 86% Calm Calm -- 30.29 in1025.7 mb - 0.00 in0.0 mm 0.00 in0.0 mm
09:40 AM 38.9°F3.8°C 34.5°F1.4°C 84% 2.3 mph NE3.7 kmh NE 3.5 mph5.6 kmh 30.29 in1025.7 mb - 0.00 in0.0 mm 0.00 in0.0 mm
09:50 AM 38.8°F3.8°C 34.4°F1.3°C 84% 1.2 mph SSE1.9 kmh SSE 1.2 mph1.9 kmh 30.29 in1025.7 mb - 0.00 in0.0 mm 0.00 in0.0 mm
10:00 AM 38.8°F3.8°C 34.7°F1.5°C 85% Calm Calm 1.2 mph1.9 kmh 30.29 in1025.7 mb - 0.00 in0.0 mm 0.00 in0.0 mm
10:10 AM 38.8°F3.8°C 34.4°F1.3°C 84% Calm Calm 1.2 mph1.9 kmh 30.28 in1025.4 mb - 0.00 in0.0 mm 0.00 in0.0 mm
10:20 AM 38.7°F3.7°C 34.3°F1.3°C 84% 3.5 mph NW5.6 kmh NW 3.5 mph5.6 kmh 30.28 in1025.4 mb - 0.00 in0.0 mm 0.00 in0.0 mm
10:30 AM 38.9°F3.8°C 34.5°F1.4°C 84% 2.3 mph NW3.7 kmh NW 5.8 mph9.3 kmh 30.28 in1025.4 mb - 0.00 in0.0 mm 0.00 in0.0 mm
10:40 AM 39.3°F4.1°C 34.9°F1.6°C 84% 4.6 mph W7.4 kmh W 8.1 mph13.0 kmh 30.29 in1025.7 mb - 0.00 in0.0 mm 0.00 in0.0 mm
11:00 AM 39.7°F4.3°C 35.3°F1.8°C 84% 1.2 mph W1.9 kmh W 2.3 mph3.7 kmh 30.27 in1025.1 mb - 0.00 in0.0 mm 0.00 in0.0 mm
11:10 AM 39.9°F4.4°C 35.2°F1.8°C 83% 1.2 mph NW1.9 kmh NW 1.2 mph1.9 kmh 30.27 in1025.1 mb - 0.00 in0.0 mm 0.00 in0.0 mm
11:20 AM 39.9°F4.4°C 34.9°F1.6°C 82% 3.5 mph WSW5.6 kmh WSW 2.3 mph3.7 kmh 30.27 in1025.1 mb - 0.00 in0.0 mm 0.00 in0.0 mm
11:30 AM 39.9°F4.4°C 35.2°F1.8°C 83% Calm Calm 1.2 mph1.9 kmh 30.27 in1025.1 mb - 0.00 in0.0 mm 0.00 in0.0 mm
11:40 AM 40.1°F4.5°C 35.4°F1.9°C 83% 2.3 mph W3.7 kmh W 2.3 mph3.7 kmh 30.26 in1024.7 mb - 0.00 in0.0 mm 0.00 in0.0 mm
11:50 AM 39.9°F4.4°C 35.2°F1.8°C 83% 2.3 mph SW3.7 kmh SW 2.3 mph3.7 kmh 30.26 in1024.7 mb - 0.00 in0.0 mm 0.00 in0.0 mm
12:00 PM 39.9°F4.4°C 35.5°F1.9°C 84% 1.2 mph NW1.9 kmh NW 2.3 mph3.7 kmh 30.25 in1024.4 mb - 0.00 in0.0 mm 0.00 in0.0 mm
12:10 PM 39.9°F4.4°C 35.2°F1.8°C 83% 2.3 mph WNW3.7 kmh WNW 2.3 mph3.7 kmh 30.25 in1024.4 mb - 0.00 in0.0 mm 0.00 in0.0 mm
12:20 PM 39.6°F4.2°C 36.6°F2.6°C 89% 2.3 mph WSW3.7 kmh WSW 2.3 mph3.7 kmh 30.25 in1024.4 mb - 0.00 in0.0 mm 0.00 in0.0 mm
12:30 PM 39.2°F4.0°C 37.1°F2.8°C 92% Calm Calm -- 30.25 in1024.4 mb - 0.00 in0.0 mm 0.00 in0.0 mm
12:40 PM 38.9°F3.8°C 37.8°F3.2°C 96% 2.3 mph SW3.7 kmh SW 3.5 mph5.6 kmh 30.25 in1024.4 mb - 0.01 in0.3 mm 0.01 in0.3 mm
12:50 PM 38.5°F3.6°C 37.5°F3.1°C 96% 1.2 mph SW1.9 kmh SW 2.3 mph3.7 kmh 30.25 in1024.4 mb - 0.01 in0.3 mm 0.02 in0.5 mm
01:00 PM 38.5°F3.6°C 37.5°F3.1°C 96% 1.2 mph NW1.9 kmh NW 1.2 mph1.9 kmh 30.24 in1024.0 mb - 0.01 in0.3 mm 0.03 in0.8 mm
01:10 PM 38.4°F3.6°C 37.4°F3.0°C 96% Calm Calm 5.8 mph9.3 kmh 30.23 in1023.7 mb - 0.01 in0.3 mm 0.04 in1.0 mm
01:20 PM 38.3°F3.5°C 37.3°F2.9°C 96% Calm Calm 2.3 mph3.7 kmh 30.24 in1024.0 mb - 0.00 in0.0 mm 0.04 in1.0 mm
01:30 PM 38.2°F3.4°C 37.2°F2.9°C 96% 2.3 mph E3.7 kmh E 2.3 mph3.7 kmh 30.24 in1024.0 mb - 0.01 in0.3 mm 0.05 in1.3 mm
01:40 PM 38.0°F3.3°C 36.9°F2.7°C 96% Calm Calm 2.3 mph3.7 kmh 30.24 in1024.0 mb - 0.01 in0.3 mm 0.06 in1.5 mm
01:50 PM 37.8°F3.2°C 36.5°F2.5°C 95% 1.2 mph WNW1.9 kmh WNW 2.3 mph3.7 kmh 30.24 in1024.0 mb - 0.00 in0.0 mm 0.06 in1.5 mm
02:00 PM 37.6°F3.1°C 36.3°F2.4°C 95% 2.3 mph NW3.7 kmh NW 2.3 mph3.7 kmh 30.22 in1023.4 mb - 0.01 in0.3 mm 0.07 in1.8 mm
02:10 PM 37.4°F3.0°C 36.1°F2.3°C 95% 1.2 mph N1.9 kmh N 2.3 mph3.7 kmh 30.22 in1023.4 mb - 0.00 in0.0 mm 0.07 in1.8 mm
02:20 PM 37.3°F2.9°C 36.0°F2.2°C 95% 2.3 mph NNE3.7 kmh NNE 3.5 mph5.6 kmh 30.23 in1023.7 mb - 0.01 in0.3 mm 0.08 in2.0 mm
02:30 PM 37.1°F2.8°C 35.8°F2.1°C 95% 2.3 mph NE3.7 kmh NE 2.3 mph3.7 kmh 30.23 in1023.7 mb - 0.00 in0.0 mm 0.08 in2.0 mm
02:40 PM 36.8°F2.7°C 35.5°F1.9°C 95% 3.5 mph WSW5.6 kmh WSW 6.9 mph11.1 kmh 30.23 in1023.7 mb - 0.01 in0.3 mm 0.09 in2.3 mm
03:20 PM 36.4°F2.4°C 35.1°F1.7°C 95% 1.2 mph NNW1.9 kmh NNW -- 30.23 in1023.7 mb - 0.00 in0.0 mm 0.10 in2.5 mm
03:30 PM 36.3°F2.4°C 35.0°F1.7°C 95% Calm Calm -- 30.23 in1023.7 mb - 0.01 in0.3 mm 0.11 in2.8 mm
03:40 PM 36.2°F2.3°C 34.9°F1.6°C 95% Calm Calm 1.2 mph1.9 kmh 30.23 in1023.7 mb - 0.01 in0.3 mm 0.11 in2.8 mm
03:50 PM 36.1°F2.3°C 34.8°F1.6°C 95% Calm Calm -- 30.23 in1023.7 mb - 0.01 in0.3 mm 0.12 in3.0 mm
04:00 PM 35.9°F2.2°C 34.6°F1.4°C 95% 1.2 mph NW1.9 kmh NW 2.3 mph3.7 kmh 30.23 in1023.7 mb - 0.01 in0.3 mm 0.13 in3.3 mm
04:10 PM 35.9°F2.2°C 34.6°F1.4°C 95% 2.3 mph N3.7 kmh N 2.3 mph3.7 kmh 30.23 in1023.7 mb - 0.01 in0.3 mm 0.14 in3.6 mm
04:20 PM 35.9°F2.2°C 34.6°F1.4°C 95% 1.2 mph WNW1.9 kmh WNW 2.3 mph3.7 kmh 30.23 in1023.7 mb - 0.01 in0.3 mm 0.15 in3.8 mm
04:30 PM 35.9°F2.2°C 34.6°F1.4°C 95% 1.2 mph WNW1.9 kmh WNW 2.3 mph3.7 kmh 30.23 in1023.7 mb - 0.00 in0.0 mm 0.15 in3.8 mm
04:40 PM 35.9°F2.2°C 34.6°F1.4°C 95% Calm Calm 2.3 mph3.7 kmh 30.23 in1023.7 mb - 0.01 in0.3 mm 0.16 in4.1 mm
04:50 PM 35.9°F2.2°C 34.6°F1.4°C 95% 3.5 mph WNW5.6 kmh WNW 2.3 mph3.7 kmh 30.23 in1023.7 mb - 0.01 in0.3 mm 0.17 in4.3 mm
05:00 PM 35.7°F2.1°C 34.4°F1.3°C 95% 3.5 mph WNW5.6 kmh WNW 5.8 mph9.3 kmh 30.23 in1023.7 mb - 0.00 in0.0 mm 0.17 in4.3 mm
05:10 PM 35.5°F1.9°C 34.2°F1.2°C 95% 2.3 mph E3.7 kmh E 3.5 mph5.6 kmh 30.22 in1023.4 mb - 0.01 in0.3 mm 0.18 in4.6 mm
05:20 PM 35.4°F1.9°C 34.1°F1.2°C 95% 2.3 mph N3.7 kmh N 2.3 mph3.7 kmh 30.22 in1023.4 mb - 0.00 in0.0 mm 0.18 in4.6 mm
05:30 PM 35.4°F1.9°C 34.1°F1.2°C 95% 2.3 mph NW3.7 kmh NW 2.3 mph3.7 kmh 30.22 in1023.4 mb - 0.00 in0.0 mm 0.18 in4.6 mm
05:40 PM 35.4°F1.9°C 34.1°F1.2°C 95% 1.2 mph SW1.9 kmh SW 1.2 mph1.9 kmh 30.22 in1023.4 mb - 0.00 in0.0 mm 0.18 in4.6 mm
05:50 PM 35.4°F1.9°C 34.1°F1.2°C 95% 2.3 mph WSW3.7 kmh WSW 2.3 mph3.7 kmh 30.22 in1023.4 mb - 0.00 in0.0 mm 0.18 in4.6 mm
06:00 PM 35.3°F1.8°C 34.0°F1.1°C 95% 2.3 mph NE3.7 kmh NE 2.3 mph3.7 kmh 30.22 in1023.4 mb - 0.00 in0.0 mm 0.18 in4.6 mm
06:10 PM 35.3°F1.8°C 34.0°F1.1°C 95% 3.5 mph WNW5.6 kmh WNW 5.8 mph9.3 kmh 30.22 in1023.4 mb - 0.00 in0.0 mm 0.18 in4.6 mm
06:20 PM 35.4°F1.9°C 34.1°F1.2°C 95% Calm Calm -- 30.22 in1023.4 mb - 0.00 in0.0 mm 0.18 in4.6 mm
06:40 PM 35.4°F1.9°C 34.1°F1.2°C 95% 1.2 mph NW1.9 kmh NW 3.5 mph5.6 kmh 30.21 in1023.0 mb - 0.00 in0.0 mm 0.19 in4.8 mm
06:50 PM 35.5°F1.9°C 34.2°F1.2°C 95% 1.2 mph WSW1.9 kmh WSW 5.8 mph9.3 kmh 30.21 in1023.0 mb - 0.00 in0.0 mm 0.19 in4.8 mm
07:00 PM 35.5°F1.9°C 34.2°F1.2°C 95% 2.3 mph NW3.7 kmh NW 2.3 mph3.7 kmh 30.22 in1023.4 mb - 0.00 in0.0 mm 0.19 in4.8 mm
07:10 PM 35.5°F1.9°C 34.2°F1.2°C 95% 3.5 mph NW5.6 kmh NW 2.3 mph3.7 kmh 30.22 in1023.4 mb - 0.00 in0.0 mm 0.19 in4.8 mm
07:20 PM 35.6°F2.0°C 34.3°F1.3°C 95% 1.2 mph NW1.9 kmh NW 2.3 mph3.7 kmh 30.22 in1023.4 mb - 0.00 in0.0 mm 0.19 in4.8 mm
07:30 PM 35.7°F2.1°C 34.4°F1.3°C 95% 1.2 mph NNW1.9 kmh NNW 2.3 mph3.7 kmh 30.23 in1023.7 mb - 0.00 in0.0 mm 0.19 in4.8 mm
07:40 PM 35.7°F2.1°C 34.4°F1.3°C 95% 1.2 mph NE1.9 kmh NE 2.3 mph3.7 kmh 30.23 in1023.7 mb - 0.00 in0.0 mm 0.19 in4.8 mm
07:50 PM 35.7°F2.1°C 34.4°F1.3°C 95% 1.2 mph ENE1.9 kmh ENE 2.3 mph3.7 kmh 30.23 in1023.7 mb - 0.00 in0.0 mm 0.19 in4.8 mm
08:00 PM 35.6°F2.0°C 34.3°F1.3°C 95% 2.3 mph WSW3.7 kmh WSW 2.3 mph3.7 kmh 30.23 in1023.7 mb - 0.01 in0.3 mm 0.20 in5.1 mm
08:10 PM 35.6°F2.0°C 34.3°F1.3°C 95% 1.2 mph WNW1.9 kmh WNW 2.3 mph3.7 kmh 30.23 in1023.7 mb - 0.00 in0.0 mm 0.20 in5.1 mm
08:20 PM 35.5°F1.9°C 34.2°F1.2°C 95% Calm Calm -- 30.23 in1023.7 mb - 0.00 in0.0 mm 0.20 in5.1 mm
08:30 PM 35.5°F1.9°C 34.2°F1.2°C 95% Calm Calm 2.3 mph3.7 kmh 30.23 in1023.7 mb - 0.01 in0.3 mm 0.21 in5.3 mm
08:40 PM 35.5°F1.9°C 34.2°F1.2°C 95% 2.3 mph NNW3.7 kmh NNW 2.3 mph3.7 kmh 30.23 in1023.7 mb - 0.00 in0.0 mm 0.21 in5.3 mm
08:50 PM 35.5°F1.9°C 34.2°F1.2°C 95% 1.2 mph SE1.9 kmh SE 2.3 mph3.7 kmh 30.23 in1023.7 mb - 0.00 in0.0 mm 0.21 in5.3 mm
09:00 PM 35.6°F2.0°C 34.3°F1.3°C 95% Calm Calm -- 30.23 in1023.7 mb - 0.00 in0.0 mm 0.21 in5.3 mm
09:10 PM 35.6°F2.0°C 34.3°F1.3°C 95% 2.3 mph E3.7 kmh E 3.5 mph5.6 kmh 30.23 in1023.7 mb - 0.00 in0.0 mm 0.21 in5.3 mm
09:20 PM 35.6°F2.0°C 34.3°F1.3°C 95% 2.3 mph W3.7 kmh W 2.3 mph3.7 kmh 30.23 in1023.7 mb - 0.01 in0.3 mm 0.22 in5.6 mm
09:30 PM 35.6°F2.0°C 34.3°F1.3°C 95% Calm Calm -- 30.23 in1023.7 mb - 0.00 in0.0 mm 0.22 in5.6 mm
09:40 PM 35.5°F1.9°C 34.2°F1.2°C 95% Calm Calm 1.2 mph1.9 kmh 30.23 in1023.7 mb - 0.00 in0.0 mm 0.22 in5.6 mm
09:50 PM 35.6°F2.0°C 34.3°F1.3°C 95% 1.2 mph NW1.9 kmh NW 2.3 mph3.7 kmh 30.22 in1023.4 mb - 0.00 in0.0 mm 0.22 in5.6 mm
10:00 PM 35.6°F2.0°C 34.3°F1.3°C 95% Calm Calm 2.3 mph3.7 kmh 30.22 in1023.4 mb - 0.00 in0.0 mm 0.22 in5.6 mm
10:10 PM 35.5°F1.9°C 34.3°F1.3°C 95% 1.2 mph NE1.9 kmh NE 1.2 mph1.9 kmh 30.22 in1023.4 mb - 0.00 in0.0 mm 0.22 in5.6 mm
10:20 PM 35.5°F1.9°C 34.3°F1.3°C 95% Calm Calm 2.3 mph3.7 kmh 30.22 in1023.4 mb - 0.00 in0.0 mm 0.22 in5.6 mm
10:30 PM 35.6°F2.0°C 34.3°F1.3°C 95% 1.2 mph SE1.9 kmh SE 2.3 mph3.7 kmh 30.21 in1023.0 mb - 0.00 in0.0 mm 0.22 in5.6 mm
10:40 PM 35.6°F2.0°C 34.4°F1.3°C 95% 2.3 mph NW3.7 kmh NW 2.3 mph3.7 kmh 30.21 in1023.0 mb - 0.00 in0.0 mm 0.22 in5.6 mm
10:50 PM 35.6°F2.0°C 34.3°F1.3°C 95% 3.5 mph NNW5.6 kmh NNW 3.5 mph5.6 kmh 30.21 in1023.0 mb - 0.00 in0.0 mm 0.22 in5.6 mm
11:00 PM 35.7°F2.1°C 34.4°F1.3°C 95% 1.2 mph NNE1.9 kmh NNE 2.3 mph3.7 kmh 30.21 in1023.0 mb - 0.00 in0.0 mm 0.22 in5.6 mm
11:10 PM 35.7°F2.1°C 34.4°F1.3°C 95% 2.3 mph S3.7 kmh S 2.3 mph3.7 kmh 30.21 in1023.0 mb - 0.00 in0.0 mm 0.22 in5.6 mm
11:20 PM 35.7°F2.1°C 34.4°F1.3°C 95% Calm Calm -- 30.21 in1023.0 mb - 0.01 in0.3 mm 0.23 in5.8 mm
11:30 PM 35.8°F2.1°C 34.5°F1.4°C 95% 2.3 mph NNW3.7 kmh NNW 5.8 mph9.3 kmh 30.20 in1022.7 mb - 0.00 in0.0 mm 0.23 in5.8 mm
11:40 PM 35.8°F2.1°C 34.5°F1.4°C 95% Calm Calm 1.2 mph1.9 kmh 30.21 in1023.0 mb - 0.00 in0.0 mm 0.23 in5.8 mm
11:50 PM 35.8°F2.1°C 34.5°F1.4°C 95% Calm Calm 2.3 mph3.7 kmh 30.21 in1023.0 mb - 0.00 in0.0 mm 0.23 in5.8 mm